Enderby, United Kingdom
Current Conditions -  °F | °C
As of 7:20 AM on Wednesday 22 Oct 2014 (Local Time) from EGNX Reporting Station
Scattered Clouds Scattered Clouds  
Wind Chill: 40°   Ceiling: Unl
Heat Index: 46°   Visibility: 6mi
Dew Point: 41°   Wind: 16mph
Humidity: 81%   Direction: 260°W
Pressure: 30.21"   Gusts: NA
Location:  52.59°N, 1.21°W
Report Text: EGNX 220620Z 26014KT 9999 FEW025 SCT035 08/05 Q1023
Loading
Personal Weather Stations






























Interactive Weather Map
Tropical Storm Tracking
New forecast layout! Learn more

10-Day Weather Forecast

Advertisements
Track Severe Weather on mobile